sensor_id;sensor_type;location;lat;lon;timestamp;pressure;altitude;pressure_sealevel;temperature;humidity
62789;BME280;66401;42.016;21.454;2023-05-10T00:01:21;98398.06;;;12.19;91.46
62789;BME280;66401;42.016;21.454;2023-05-10T00:03:47;98396.47;;;12.18;90.65
62789;BME280;66401;42.016;21.454;2023-05-10T00:06:12;98399.47;;;12.15;91.55
62789;BME280;66401;42.016;21.454;2023-05-10T00:08:38;98387.81;;;12.11;91.68
62789;BME280;66401;42.016;21.454;2023-05-10T00:11:03;98389.78;;;11.95;93.33
62789;BME280;66401;42.016;21.454;2023-05-10T00:13:29;98394.63;;;12.05;92.96
62789;BME280;66401;42.016;21.454;2023-05-10T00:15:55;98387.41;;;12.07;91.81
62789;BME280;66401;42.016;21.454;2023-05-10T00:18:20;98376.94;;;12.00;91.79
62789;BME280;66401;42.016;21.454;2023-05-10T00:20:45;98380.16;;;11.89;93.62
62789;BME280;66401;42.016;21.454;2023-05-10T00:23:11;98381.38;;;12.00;91.81
62789;BME280;66401;42.016;21.454;2023-05-10T00:25:37;98364.47;;;11.96;91.96
62789;BME280;66401;42.016;21.454;2023-05-10T00:28:02;98367.13;;;12.09;90.82
62789;BME280;66401;42.016;21.454;2023-05-10T00:30:28;98377.16;;;12.12;91.39
62789;BME280;66401;42.016;21.454;2023-05-10T00:32:54;98378.97;;;11.98;92.72
62789;BME280;66401;42.016;21.454;2023-05-10T00:35:19;98374.16;;;12.09;91.86
62789;BME280;66401;42.016;21.454;2023-05-10T00:37:45;98374.53;;;12.06;90.48
62789;BME280;66401;42.016;21.454;2023-05-10T00:40:10;98368.31;;;12.00;91.74
62789;BME280;66401;42.016;21.454;2023-05-10T00:42:36;98374.97;;;12.09;90.48
62789;BME280;66401;42.016;21.454;2023-05-10T00:45:02;98371.31;;;12.03;91.99
62789;BME280;66401;42.016;21.454;2023-05-10T00:47:27;98362.50;;;11.98;91.00
62789;BME280;66401;42.016;21.454;2023-05-10T00:49:57;98355.47;;;12.05;90.57
62789;BME280;66401;42.016;21.454;2023-05-10T00:52:22;98357.66;;;11.95;91.19
62789;BME280;66401;42.016;21.454;2023-05-10T00:54:50;98358.84;;;11.86;92.43
62789;BME280;66401;42.016;21.454;2023-05-10T00:57:17;98363.06;;;11.93;92.62
62789;BME280;66401;42.016;21.454;2023-05-10T00:59:42;98364.88;;;11.93;91.42
62789;BME280;66401;42.016;21.454;2023-05-10T01:02:08;98355.69;;;11.97;91.38
62789;BME280;66401;42.016;21.454;2023-05-10T01:04:35;98354.84;;;12.03;90.24
62789;BME280;66401;42.016;21.454;2023-05-10T01:07:00;98364.50;;;12.02;91.01
62789;BME280;66401;42.016;21.454;2023-05-10T01:09:27;98354.84;;;12.03;91.23
62789;BME280;66401;42.016;21.454;2023-05-10T01:11:53;98358.88;;;11.99;91.80
62789;BME280;66401;42.016;21.454;2023-05-10T01:14:20;98351.06;;;11.99;91.01
62789;BME280;66401;42.016;21.454;2023-05-10T01:16:48;98352.44;;;12.01;90.66
62789;BME280;66401;42.016;21.454;2023-05-10T01:19:22;98355.06;;;11.88;92.67
62789;BME280;66401;42.016;21.454;2023-05-10T01:27:52;98340.00;;;11.97;91.33
62789;BME280;66401;42.016;21.454;2023-05-10T01:33:24;98350.03;;;12.00;91.85
62789;BME280;66401;42.016;21.454;2023-05-10T01:36:05;98345.03;;;12.05;91.08
62789;BME280;66401;42.016;21.454;2023-05-10T01:38:42;98342.63;;;12.10;91.23
62789;BME280;66401;42.016;21.454;2023-05-10T01:41:18;98348.44;;;12.06;91.56
62789;BME280;66401;42.016;21.454;2023-05-10T01:46:38;98345.25;;;12.10;92.47
62789;BME280;66401;42.016;21.454;2023-05-10T01:49:13;98341.59;;;12.04;93.28
62789;BME280;66401;42.016;21.454;2023-05-10T01:51:50;98343.22;;;12.12;91.84
62789;BME280;66401;42.016;21.454;2023-05-10T01:54:19;98330.53;;;11.96;93.39
62789;BME280;66401;42.016;21.454;2023-05-10T01:56:48;98337.16;;;11.85;93.90
62789;BME280;66401;42.016;21.454;2023-05-10T01:59:18;98332.38;;;11.89;93.78
62789;BME280;66401;42.016;21.454;2023-05-10T02:01:45;98327.13;;;11.95;92.38
62789;BME280;66401;42.016;21.454;2023-05-10T02:04:15;98329.56;;;11.97;92.63
62789;BME280;66401;42.016;21.454;2023-05-10T02:06:42;98330.78;;;12.01;92.36
62789;BME280;66401;42.016;21.454;2023-05-10T02:09:09;98329.75;;;12.02;91.72
62789;BME280;66401;42.016;21.454;2023-05-10T02:11:37;98331.97;;;12.12;91.26
62789;BME280;66401;42.016;21.454;2023-05-10T02:14:06;98331.19;;;12.11;91.84
62789;BME280;66401;42.016;21.454;2023-05-10T02:16:35;98339.16;;;11.83;93.54
62789;BME280;66401;42.016;21.454;2023-05-10T02:19:02;98327.94;;;11.83;93.07
62789;BME280;66401;42.016;21.454;2023-05-10T02:21:29;98342.16;;;11.87;93.12
62789;BME280;66401;42.016;21.454;2023-05-10T02:23:57;98331.34;;;11.90;92.47
62789;BME280;66401;42.016;21.454;2023-05-10T02:26:24;98323.53;;;11.90;92.31
62789;BME280;66401;42.016;21.454;2023-05-10T02:28:52;98331.97;;;11.92;92.05
62789;BME280;66401;42.016;21.454;2023-05-10T02:31:18;98329.56;;;11.97;91.47
62789;BME280;66401;42.016;21.454;2023-05-10T02:33:45;98326.13;;;11.90;91.14
62789;BME280;66401;42.016;21.454;2023-05-10T02:36:12;98326.34;;;11.95;90.42
62789;BME280;66401;42.016;21.454;2023-05-10T02:38:40;98331.97;;;11.92;90.83
62789;BME280;66401;42.016;21.454;2023-05-10T02:41:07;98341.63;;;11.98;89.92
62789;BME280;66401;42.016;21.454;2023-05-10T02:43:35;98331.75;;;11.93;90.48
62789;BME280;66401;42.016;21.454;2023-05-10T02:46:01;98324.31;;;11.84;90.96
62789;BME280;66401;42.016;21.454;2023-05-10T02:48:28;98316.47;;;11.84;90.19
62789;BME280;66401;42.016;21.454;2023-05-10T02:50:56;98325.72;;;11.93;90.68
62789;BME280;66401;42.016;21.454;2023-05-10T02:53:31;98331.56;;;11.95;89.59
62789;BME280;66401;42.016;21.454;2023-05-10T02:55:59;98326.69;;;11.79;90.40
62789;BME280;66401;42.016;21.454;2023-05-10T02:58:27;98328.75;;;11.90;90.56
62789;BME280;66401;42.016;21.454;2023-05-10T03:00:52;98321.94;;;11.89;89.13
62789;BME280;66401;42.016;21.454;2023-05-10T03:03:19;98331.28;;;11.76;91.11
62789;BME280;66401;42.016;21.454;2023-05-10T03:05:45;98332.25;;;11.62;90.28
62789;BME280;66401;42.016;21.454;2023-05-10T03:08:10;98341.13;;;11.74;90.81
62789;BME280;66401;42.016;21.454;2023-05-10T03:10:44;98332.28;;;11.75;90.87
62789;BME280;66401;42.016;21.454;2023-05-10T03:13:30;98334.69;;;11.77;90.36
62789;BME280;66401;42.016;21.454;2023-05-10T03:15:59;98341.19;;;11.81;90.01
62789;BME280;66401;42.016;21.454;2023-05-10T03:18:44;98337.31;;;11.77;91.12
62789;BME280;66401;42.016;21.454;2023-05-10T03:21:13;98333.28;;;11.74;90.34
62789;BME280;66401;42.016;21.454;2023-05-10T03:23:45;98342.78;;;11.82;89.80
62789;BME280;66401;42.016;21.454;2023-05-10T03:26:25;98337.31;;;11.70;91.69
62789;BME280;66401;42.016;21.454;2023-05-10T03:28:52;98319.81;;;11.64;91.46
62789;BME280;66401;42.016;21.454;2023-05-10T03:31:19;98340.78;;;11.84;90.26
62789;BME280;66401;42.016;21.454;2023-05-10T03:33:51;98327.31;;;11.81;90.79
62789;BME280;66401;42.016;21.454;2023-05-10T03:36:18;98333.56;;;11.93;90.39
62789;BME280;66401;42.016;21.454;2023-05-10T03:38:44;98313.66;;;11.79;90.54
62789;BME280;66401;42.016;21.454;2023-05-10T03:41:10;98330.75;;;11.88;90.46
62789;BME280;66401;42.016;21.454;2023-05-10T03:43:35;98329.75;;;11.89;90.59
62789;BME280;66401;42.016;21.454;2023-05-10T03:46:04;98335.16;;;11.94;89.72
62789;BME280;66401;42.016;21.454;2023-05-10T03:48:32;98330.94;;;11.93;90.04
62789;BME280;66401;42.016;21.454;2023-05-10T03:50:57;98331.94;;;11.85;90.30
62789;BME280;66401;42.016;21.454;2023-05-10T03:53:23;98335.78;;;11.89;90.67
62789;BME280;66401;42.016;21.454;2023-05-10T03:55:48;98328.53;;;11.85;90.38
62789;BME280;66401;42.016;21.454;2023-05-10T03:58:14;98335.75;;;11.83;90.67
62789;BME280;66401;42.016;21.454;2023-05-10T04:00:40;98348.81;;;11.89;91.00
62789;BME280;66401;42.016;21.454;2023-05-10T04:03:11;98353.63;;;11.86;90.86
62789;BME280;66401;42.016;21.454;2023-05-10T04:05:36;98345.59;;;11.81;91.34
62789;BME280;66401;42.016;21.454;2023-05-10T04:08:03;98348.41;;;11.86;91.45
62789;BME280;66401;42.016;21.454;2023-05-10T04:10:28;98337.50;;;11.75;92.10
62789;BME280;66401;42.016;21.454;2023-05-10T04:12:54;98353.16;;;11.75;93.87
62789;BME280;66401;42.016;21.454;2023-05-10T04:15:19;98337.63;;;11.41;94.77
62789;BME280;66401;42.016;21.454;2023-05-10T04:17:45;98355.69;;;11.08;96.90
62789;BME280;66401;42.016;21.454;2023-05-10T04:20:11;98350.38;;;10.88;97.11
62789;BME280;66401;42.016;21.454;2023-05-10T04:32:58;98368.41;;;10.83;98.46
62789;BME280;66401;42.016;21.454;2023-05-10T04:35:23;98355.44;;;10.96;98.65
62789;BME280;66401;42.016;21.454;2023-05-10T04:40:32;98311.63;;;10.78;98.09
62789;BME280;66401;42.016;21.454;2023-05-10T04:42:58;98329.91;;;10.85;98.57
62789;BME280;66401;42.016;21.454;2023-05-10T04:45:23;98345.31;;;10.80;99.39
62789;BME280;66401;42.016;21.454;2023-05-10T04:47:49;98331.41;;;10.66;98.92
62789;BME280;66401;42.016;21.454;2023-05-10T04:50:14;98312.91;;;10.54;99.45
62789;BME280;66401;42.016;21.454;2023-05-10T05:03:01;98333.44;;;10.71;99.20
62789;BME280;66401;42.016;21.454;2023-05-10T05:20:57;98345.72;;;11.11;97.63
62789;BME280;66401;42.016;21.454;2023-05-10T05:23:23;98346.34;;;11.20;96.52
62789;BME280;66401;42.016;21.454;2023-05-10T05:25:54;98365.06;;;11.37;95.87
62789;BME280;66401;42.016;21.454;2023-05-10T05:28:20;98356.63;;;11.35;95.03
62789;BME280;66401;42.016;21.454;2023-05-10T05:30:46;98377.19;;;11.51;94.86
62789;BME280;66401;42.016;21.454;2023-05-10T05:33:13;98347.84;;;11.42;94.46
62789;BME280;66401;42.016;21.454;2023-05-10T05:35:39;98356.69;;;11.48;95.00
62789;BME280;66401;42.016;21.454;2023-05-10T05:38:04;98350.88;;;11.46;94.70
62789;BME280;66401;42.016;21.454;2023-05-10T05:40:30;98385.66;;;11.66;94.41
62789;BME280;66401;42.016;21.454;2023-05-10T05:42:56;98386.06;;;11.70;93.99
62789;BME280;66401;42.016;21.454;2023-05-10T05:45:21;98379.25;;;11.75;94.71
62789;BME280;66401;42.016;21.454;2023-05-10T05:47:46;98373.84;;;11.70;93.36
62789;BME280;66401;42.016;21.454;2023-05-10T05:50:12;98378.44;;;11.75;93.90
62789;BME280;66401;42.016;21.454;2023-05-10T05:52:37;98371.03;;;11.72;93.43
62789;BME280;66401;42.016;21.454;2023-05-10T05:55:03;98372.44;;;11.74;92.72
62789;BME280;66401;42.016;21.454;2023-05-10T05:57:30;98383.31;;;11.85;92.73
62789;BME280;66401;42.016;21.454;2023-05-10T05:59:56;98372.50;;;11.81;92.86
62789;BME280;66401;42.016;21.454;2023-05-10T06:02:21;98382.75;;;11.89;93.46
62789;BME280;66401;42.016;21.454;2023-05-10T06:04:47;98389.16;;;11.87;93.02
62789;BME280;66401;42.016;21.454;2023-05-10T06:07:12;98393.78;;;11.91;93.04
62789;BME280;66401;42.016;21.454;2023-05-10T06:09:38;98373.31;;;11.88;92.64
62789;BME280;66401;42.016;21.454;2023-05-10T06:12:03;98389.38;;;11.92;91.87
62789;BME280;66401;42.016;21.454;2023-05-10T06:14:29;98389.78;;;11.95;91.80
62789;BME280;66401;42.016;21.454;2023-05-10T06:16:54;98382.13;;;11.81;92.94
62789;BME280;66401;42.016;21.454;2023-05-10T06:19:20;98382.16;;;11.94;93.22
62789;BME280;66401;42.016;21.454;2023-05-10T06:21:45;98383.38;;;11.98;92.27
62789;BME280;66401;42.016;21.454;2023-05-10T06:24:11;98377.53;;;11.96;92.73
62789;BME280;66401;42.016;21.454;2023-05-10T06:26:36;98383.56;;;12.03;93.58
62789;BME280;66401;42.016;21.454;2023-05-10T06:29:02;98387.63;;;12.12;92.56
62789;BME280;66401;42.016;21.454;2023-05-10T06:31:27;98393.44;;;12.14;91.05
62789;BME280;66401;42.016;21.454;2023-05-10T06:33:53;98397.47;;;12.23;90.50
62789;BME280;66401;42.016;21.454;2023-05-10T06:36:18;98397.03;;;12.00;92.62
62789;BME280;66401;42.016;21.454;2023-05-10T06:38:44;98399.47;;;12.08;92.42
62789;BME280;66401;42.016;21.454;2023-05-10T06:41:09;98403.88;;;12.08;92.90
62789;BME280;66401;42.016;21.454;2023-05-10T06:43:35;98395.00;;;11.95;91.76
62789;BME280;66401;42.016;21.454;2023-05-10T06:46:00;98401.81;;;11.96;91.74
62789;BME280;66401;42.016;21.454;2023-05-10T06:48:26;98415.13;;;12.08;92.14
62789;BME280;66401;42.016;21.454;2023-05-10T06:50:51;98403.84;;;11.88;94.37
62789;BME280;66401;42.016;21.454;2023-05-10T06:53:17;98407.06;;;12.03;93.53
62789;BME280;66401;42.016;21.454;2023-05-10T06:55:43;98410.69;;;12.02;92.29
62789;BME280;66401;42.016;21.454;2023-05-10T06:58:08;98415.94;;;12.09;90.85
62789;BME280;66401;42.016;21.454;2023-05-10T07:00:34;98406.28;;;12.09;91.39
62789;BME280;66401;42.016;21.454;2023-05-10T07:02:59;98414.13;;;12.16;90.38
62789;BME280;66401;42.016;21.454;2023-05-10T07:05:25;98406.81;;;11.85;91.71
62789;BME280;66401;42.016;21.454;2023-05-10T07:07:52;98409.91;;;12.08;91.48
62789;BME280;66401;42.016;21.454;2023-05-10T07:10:18;98406.50;;;12.14;90.63
62789;BME280;66401;42.016;21.454;2023-05-10T07:12:43;98405.53;;;12.28;89.85
62789;BME280;66401;42.016;21.454;2023-05-10T07:15:09;98414.56;;;12.32;90.15
62789;BME280;66401;42.016;21.454;2023-05-10T07:17:34;98413.50;;;12.00;90.84
62789;BME280;66401;42.016;21.454;2023-05-10T07:20:00;98407.72;;;12.18;90.94
62789;BME280;66401;42.016;21.454;2023-05-10T07:22:26;98420.19;;;12.16;91.52
62789;BME280;66401;42.016;21.454;2023-05-10T07:24:52;98415.38;;;12.26;91.08
62789;BME280;66401;42.016;21.454;2023-05-10T07:27:17;98421.59;;;12.19;89.40
62789;BME280;66401;42.016;21.454;2023-05-10T07:29:43;98417.78;;;12.35;89.79
62789;BME280;66401;42.016;21.454;2023-05-10T07:32:08;98416.78;;;12.29;89.96
62789;BME280;66401;42.016;21.454;2023-05-10T07:34:34;98394.84;;;12.10;90.21
62789;BME280;66401;42.016;21.454;2023-05-10T07:37:00;98415.56;;;12.31;90.06
62789;BME280;66401;42.016;21.454;2023-05-10T07:39:26;98417.59;;;12.43;90.92
62789;BME280;66401;42.016;21.454;2023-05-10T07:41:52;98422.00;;;12.36;90.23
62789;BME280;66401;42.016;21.454;2023-05-10T07:44:18;98418.22;;;12.58;88.68
62789;BME280;66401;42.016;21.454;2023-05-10T07:46:45;98419.63;;;12.67;90.41
62789;BME280;66401;42.016;21.454;2023-05-10T07:49:11;98427.25;;;12.88;88.83
62789;BME280;66401;42.016;21.454;2023-05-10T07:51:36;98420.44;;;12.74;87.67
62789;BME280;66401;42.016;21.454;2023-05-10T07:54:02;98423.22;;;12.79;87.29
62789;BME280;66401;42.016;21.454;2023-05-10T07:56:29;98435.91;;;12.96;87.64
62789;BME280;66401;42.016;21.454;2023-05-10T07:58:59;98423.03;;;12.94;87.47
62789;BME280;66401;42.016;21.454;2023-05-10T08:01:25;98426.44;;;12.68;88.89
62789;BME280;66401;42.016;21.454;2023-05-10T08:03:51;98436.25;;;12.26;90.39
62789;BME280;66401;42.016;21.454;2023-05-10T08:06:19;98428.03;;;12.29;89.24
62789;BME280;66401;42.016;21.454;2023-05-10T08:08:48;98429.06;;;12.48;89.45
62789;BME280;66401;42.016;21.454;2023-05-10T08:11:18;98438.25;;;12.24;88.77
62789;BME280;66401;42.016;21.454;2023-05-10T08:13:45;98438.47;;;12.43;89.43
62789;BME280;66401;42.016;21.454;2023-05-10T08:16:10;98450.50;;;12.17;89.91
62789;BME280;66401;42.016;21.454;2023-05-10T08:18:37;98452.78;;;11.86;90.15
62789;BME280;66401;42.016;21.454;2023-05-10T08:21:02;98456.47;;;11.98;90.44
62789;BME280;66401;42.016;21.454;2023-05-10T08:23:29;98433.19;;;12.03;89.82
62789;BME280;66401;42.016;21.454;2023-05-10T08:25:54;98443.47;;;12.18;89.32
62789;BME280;66401;42.016;21.454;2023-05-10T08:28:20;98451.72;;;12.35;86.26
62789;BME280;66401;42.016;21.454;2023-05-10T08:30:46;98451.09;;;12.19;88.35
62789;BME280;66401;42.016;21.454;2023-05-10T08:33:12;98446.47;;;12.21;86.92
62789;BME280;66401;42.016;21.454;2023-05-10T08:35:37;98437.69;;;12.36;88.01
62789;BME280;66401;42.016;21.454;2023-05-10T08:38:03;98446.91;;;12.31;87.06
62789;BME280;66401;42.016;21.454;2023-05-10T08:40:29;98444.84;;;12.14;87.32
62789;BME280;66401;42.016;21.454;2023-05-10T08:43:08;98459.09;;;11.98;88.46
62789;BME280;66401;42.016;21.454;2023-05-10T08:45:37;98454.69;;;12.12;88.87
62789;BME280;66401;42.016;21.454;2023-05-10T08:48:05;98450.06;;;12.14;88.48
62789;BME280;66401;42.016;21.454;2023-05-10T08:50:35;98454.34;;;12.35;87.23
62789;BME280;66401;42.016;21.454;2023-05-10T08:53:04;98449.75;;;12.50;85.74
62789;BME280;66401;42.016;21.454;2023-05-10T08:55:32;98457.34;;;12.31;88.01
62789;BME280;66401;42.016;21.454;2023-05-10T08:57:59;98452.53;;;12.28;88.37
62789;BME280;66401;42.016;21.454;2023-05-10T09:00:26;98446.03;;;12.04;86.67
62789;BME280;66401;42.016;21.454;2023-05-10T09:02:51;98458.72;;;12.21;87.25
62789;BME280;66401;42.016;21.454;2023-05-10T09:05:17;98454.91;;;12.23;87.63
62789;BME280;66401;42.016;21.454;2023-05-10T09:07:43;98438.28;;;12.38;87.28
62789;BME280;66401;42.016;21.454;2023-05-10T09:10:10;98445.94;;;12.46;86.37
62789;BME280;66401;42.016;21.454;2023-05-10T09:12:37;98451.16;;;12.59;86.33
62789;BME280;66401;42.016;21.454;2023-05-10T09:15:03;98456.56;;;12.44;87.86
62789;BME280;66401;42.016;21.454;2023-05-10T09:17:30;98446.28;;;12.23;86.99
62789;BME280;66401;42.016;21.454;2023-05-10T09:19:59;98448.50;;;12.19;87.33
62789;BME280;66401;42.016;21.454;2023-05-10T09:22:25;98450.91;;;12.21;87.99
62789;BME280;66401;42.016;21.454;2023-05-10T09:25:12;98448.69;;;12.24;87.26
62789;BME280;66401;42.016;21.454;2023-05-10T09:27:40;98442.53;;;12.45;87.27
62789;BME280;66401;42.016;21.454;2023-05-10T09:30:07;98429.84;;;12.49;85.18
62789;BME280;66401;42.016;21.454;2023-05-10T09:32:41;98438.50;;;12.69;84.49
62789;BME280;66401;42.016;21.454;2023-05-10T09:35:16;98444.53;;;12.76;85.32
62789;BME280;66401;42.016;21.454;2023-05-10T09:37:44;98446.97;;;12.84;85.41
62789;BME280;66401;42.016;21.454;2023-05-10T09:40:28;98438.69;;;13.01;83.20
62789;BME280;66401;42.016;21.454;2023-05-10T09:45:23;98441.94;;;12.76;84.51
62789;BME280;66401;42.016;21.454;2023-05-10T09:47:48;98428.47;;;12.86;84.70
62789;BME280;66401;42.016;21.454;2023-05-10T09:50:14;98437.69;;;12.82;84.69
62789;BME280;66401;42.016;21.454;2023-05-10T09:58:06;98432.47;;;12.88;84.20
62789;BME280;66401;42.016;21.454;2023-05-10T10:00:43;98436.88;;;13.14;84.34
62789;BME280;66401;42.016;21.454;2023-05-10T10:03:13;98431.81;;;13.39;83.60
62789;BME280;66401;42.016;21.454;2023-05-10T10:05:40;98428.97;;;13.48;82.18
62789;BME280;66401;42.016;21.454;2023-05-10T10:08:07;98427.16;;;13.48;82.20
62789;BME280;66401;42.016;21.454;2023-05-10T10:10:33;98421.13;;;13.48;82.14
62789;BME280;66401;42.016;21.454;2023-05-10T10:12:59;98427.94;;;13.62;81.85
62789;BME280;66401;42.016;21.454;2023-05-10T10:15:25;98407.75;;;13.69;81.65
62789;BME280;66401;42.016;21.454;2023-05-10T10:17:52;98418.41;;;13.74;79.71
62789;BME280;66401;42.016;21.454;2023-05-10T10:20:19;98431.84;;;13.91;80.48
62789;BME280;66401;42.016;21.454;2023-05-10T10:22:46;98395.66;;;13.74;80.08
62789;BME280;66401;42.016;21.454;2023-05-10T10:25:14;98409.34;;;13.77;79.41
62789;BME280;66401;42.016;21.454;2023-05-10T10:30:29;98418.75;;;13.91;79.30
62789;BME280;66401;42.016;21.454;2023-05-10T10:35:58;98417.34;;;13.88;79.10
62789;BME280;66401;42.016;21.454;2023-05-10T10:38:25;98416.69;;;13.55;81.50
62789;BME280;66401;42.016;21.454;2023-05-10T10:41:09;98401.19;;;13.53;80.90
62789;BME280;66401;42.016;21.454;2023-05-10T10:43:35;98420.63;;;13.77;81.10
62789;BME280;66401;42.016;21.454;2023-05-10T10:46:14;98424.25;;;13.76;80.10
62789;BME280;66401;42.016;21.454;2023-05-10T10:48:47;98419.75;;;13.38;82.70
62789;BME280;66401;42.016;21.454;2023-05-10T10:51:13;98423.53;;;13.56;82.29
62789;BME280;66401;42.016;21.454;2023-05-10T10:53:40;98403.03;;;13.46;82.33
62789;BME280;66401;42.016;21.454;2023-05-10T10:56:12;98423.53;;;13.56;80.97
62789;BME280;66401;42.016;21.454;2023-05-10T10:58:40;98427.94;;;13.55;82.15
62789;BME280;66401;42.016;21.454;2023-05-10T11:01:13;98424.75;;;13.53;81.15
62789;BME280;66401;42.016;21.454;2023-05-10T11:03:40;98407.88;;;13.42;80.92
62789;BME280;66401;42.016;21.454;2023-05-10T11:06:06;98411.03;;;13.58;81.46
62789;BME280;66401;42.016;21.454;2023-05-10T11:08:41;98424.38;;;13.43;82.79
62789;BME280;66401;42.016;21.454;2023-05-10T11:11:08;98425.97;;;13.44;81.79
62789;BME280;66401;42.016;21.454;2023-05-10T11:13:38;98423.56;;;13.42;81.45
62789;BME280;66401;42.016;21.454;2023-05-10T11:19:02;98429.78;;;13.48;83.00
62789;BME280;66401;42.016;21.454;2023-05-10T11:21:32;98423.09;;;13.59;80.65
62789;BME280;66401;42.016;21.454;2023-05-10T11:24:00;98420.84;;;13.69;78.89
62789;BME280;66401;42.016;21.454;2023-05-10T11:26:34;98417.78;;;13.79;79.26
62789;BME280;66401;42.016;21.454;2023-05-10T11:29:07;98420.28;;;14.05;80.11
62789;BME280;66401;42.016;21.454;2023-05-10T11:31:33;98398.19;;;13.94;79.31
62789;BME280;66401;42.016;21.454;2023-05-10T11:33:59;98419.13;;;14.26;77.36
62789;BME280;66401;42.016;21.454;2023-05-10T11:36:33;98419.13;;;14.26;77.75
62789;BME280;66401;42.016;21.454;2023-05-10T11:39:00;98421.19;;;14.24;77.13
62789;BME280;66401;42.016;21.454;2023-05-10T11:41:28;98425.66;;;14.17;77.50
62789;BME280;66401;42.016;21.454;2023-05-10T11:43:55;98424.91;;;14.41;76.30
62789;BME280;66401;42.016;21.454;2023-05-10T11:46:26;98422.34;;;14.28;76.63
62789;BME280;66401;42.016;21.454;2023-05-10T11:48:55;98420.59;;;14.53;75.47
62789;BME280;66401;42.016;21.454;2023-05-10T11:51:25;98413.41;;;14.42;76.42
62789;BME280;66401;42.016;21.454;2023-05-10T11:53:52;98406.72;;;14.15;74.00
62789;BME280;66401;42.016;21.454;2023-05-10T11:56:18;98417.06;;;14.35;76.48
62789;BME280;66401;42.016;21.454;2023-05-10T11:58:44;98394.13;;;14.30;75.24
62789;BME280;66401;42.016;21.454;2023-05-10T12:01:10;98407.34;;;14.42;74.64
62789;BME280;66401;42.016;21.454;2023-05-10T12:03:37;98393.06;;;14.38;75.96
62789;BME280;66401;42.016;21.454;2023-05-10T12:06:03;98412.97;;;13.75;75.14
62789;BME280;66401;42.016;21.454;2023-05-10T12:08:30;98408.06;;;13.92;76.49
62789;BME280;66401;42.016;21.454;2023-05-10T12:11:16;98403.66;;;13.86;76.92
62789;BME280;66401;42.016;21.454;2023-05-10T12:13:43;98408.75;;;14.13;74.49
62789;BME280;66401;42.016;21.454;2023-05-10T12:16:19;98399.56;;;13.97;76.45
62789;BME280;66401;42.016;21.454;2023-05-10T12:18:52;98408.72;;;14.19;75.92
62789;BME280;66401;42.016;21.454;2023-05-10T12:21:19;98410.34;;;14.14;75.92
62789;BME280;66401;42.016;21.454;2023-05-10T12:23:54;98399.06;;;14.51;75.84
62789;BME280;66401;42.016;21.454;2023-05-10T12:26:24;98384.28;;;14.82;72.77
62789;BME280;66401;42.016;21.454;2023-05-10T12:28:53;98398.53;;;14.86;72.10
62789;BME280;66401;42.016;21.454;2023-05-10T12:31:18;98386.56;;;14.15;72.31
62789;BME280;66401;42.016;21.454;2023-05-10T12:33:44;98396.22;;;14.21;73.41
62789;BME280;66401;42.016;21.454;2023-05-10T12:36:15;98391.25;;;14.38;75.35
62789;BME280;66401;42.016;21.454;2023-05-10T12:38:42;98397.19;;;14.58;74.15
62789;BME280;66401;42.016;21.454;2023-05-10T12:41:11;98383.38;;;14.45;75.56
62789;BME280;66401;42.016;21.454;2023-05-10T12:43:39;98363.88;;;14.34;75.19
62789;BME280;66401;42.016;21.454;2023-05-10T12:46:09;98370.31;;;14.38;76.19
62789;BME280;66401;42.016;21.454;2023-05-10T12:48:36;98384.00;;;14.40;75.79
62789;BME280;66401;42.016;21.454;2023-05-10T12:51:02;98376.72;;;14.42;73.71
62789;BME280;66401;42.016;21.454;2023-05-10T12:53:28;98373.66;;;14.52;73.69
62789;BME280;66401;42.016;21.454;2023-05-10T12:55:54;98364.63;;;14.41;74.09
62789;BME280;66401;42.016;21.454;2023-05-10T12:58:20;98361.22;;;14.66;74.04
62789;BME280;66401;42.016;21.454;2023-05-10T13:00:45;98363.66;;;14.67;73.61
62789;BME280;66401;42.016;21.454;2023-05-10T13:03:11;98359.38;;;14.91;72.68
62789;BME280;66401;42.016;21.454;2023-05-10T13:05:37;98348.31;;;14.89;72.32
62789;BME280;66401;42.016;21.454;2023-05-10T13:08:03;98365.34;;;14.80;72.67
62789;BME280;66401;42.016;21.454;2023-05-10T13:10:30;98348.81;;;14.98;71.64
62789;BME280;66401;42.016;21.454;2023-05-10T13:12:56;98353.84;;;15.36;71.68
62789;BME280;66401;42.016;21.454;2023-05-10T13:15:21;98363.47;;;15.60;70.45
62789;BME280;66401;42.016;21.454;2023-05-10T13:17:47;98343.00;;;15.81;68.85
62789;BME280;66401;42.016;21.454;2023-05-10T13:20:12;98352.31;;;15.95;68.63
62789;BME280;66401;42.016;21.454;2023-05-10T13:22:38;98350.88;;;15.81;68.24
62789;BME280;66401;42.016;21.454;2023-05-10T13:25:04;98336.03;;;15.56;69.23
62789;BME280;66401;42.016;21.454;2023-05-10T13:27:29;98349.31;;;15.61;69.00
62789;BME280;66401;42.016;21.454;2023-05-10T13:29:55;98326.31;;;15.08;68.54
62789;BME280;66401;42.016;21.454;2023-05-10T13:32:22;98315.38;;;15.30;69.89
62789;BME280;66401;42.016;21.454;2023-05-10T13:34:47;98334.44;;;15.55;68.82
62789;BME280;66401;42.016;21.454;2023-05-10T13:37:12;98336.66;;;16.00;67.82
62789;BME280;66401;42.016;21.454;2023-05-10T13:39:38;98324.47;;;16.17;67.88
62789;BME280;66401;42.016;21.454;2023-05-10T13:42:05;98328.31;;;15.61;68.00
62789;BME280;66401;42.016;21.454;2023-05-10T13:44:30;98292.59;;;15.42;68.83
62789;BME280;66401;42.016;21.454;2023-05-10T13:46:56;98323.13;;;15.73;68.79
62789;BME280;66401;42.016;21.454;2023-05-10T13:49:22;98326.91;;;15.77;68.47
62789;BME280;66401;42.016;21.454;2023-05-10T13:51:47;98330.28;;;15.96;69.25
62789;BME280;66401;42.016;21.454;2023-05-10T13:54:13;98309.69;;;15.63;69.06
62789;BME280;66401;42.016;21.454;2023-05-10T13:56:39;98297.53;;;15.68;69.43
62789;BME280;66401;42.016;21.454;2023-05-10T13:59:06;98323.28;;;15.90;68.86